Patterson, Louisiana
Current Conditions -  °F | °C
As of 2:15 PM on Friday 31 Oct 2014 (Local Time) from KPTN Reporting Station
Clear Clear  
Wind Chill: 75°   Ceiling: Unl
Heat Index: 75°   Visibility: 10mi
Dew Point: 46°   Wind: 15mph
Humidity: 36%   Direction: 340°NNW
Pressure: 30.07"   Gusts: 18mph
Location:  29.69°N, 91.3°W
Report Text: KPTN 311915Z AUTO 34013G16KT 10SM CLR 24/08 A3007 RMK AO1
Loading
Personal Weather Stations






























Interactive Weather Map New forecast layout! Learn more

10-Day Weather Forecast

Advertisements
Track Severe Weather on mobile